createdAt,value
2022-08-29T00:02:57.379Z,86.99
2022-08-29T00:08:02.389Z,86.98
2022-08-29T00:13:08.087Z,91.53
2022-08-29T00:18:10.802Z,96.78
2022-08-29T00:23:13.952Z,94.23
2022-08-29T00:28:18.062Z,90.95
2022-08-29T00:33:21.295Z,88.66
2022-08-29T00:38:27.698Z,87.93
2022-08-29T00:43:34.849Z,93.34
2022-08-29T00:48:39.205Z,89.98
2022-08-29T00:53:45.734Z,88.61
2022-08-29T00:58:54.955Z,89.48
2022-08-29T01:03:57.736Z,97.39
2022-08-29T01:09:00.403Z,92.45
2022-08-29T01:14:06.007Z,91.68
2022-08-29T01:19:16.276Z,89.95
2022-08-29T01:24:39.090Z,89.87
2022-08-29T01:29:42.238Z,95.57
2022-08-29T01:34:45.526Z,96.77
2022-08-29T01:39:49.680Z,95.87
2022-08-29T01:44:55.688Z,92.18
2022-08-29T01:49:59.651Z,90.09
2022-08-29T01:55:03.792Z,90.21
2022-08-29T02:00:10.201Z,89.40
2022-08-29T02:05:13.113Z,89.17
2022-08-29T02:10:17.113Z,88.97
2022-08-29T02:15:19.763Z,92.69
2022-08-29T02:20:22.379Z,93.41
2022-08-29T02:25:46.509Z,93.20
2022-08-29T02:30:56.466Z,93.51
2022-08-29T02:36:01.164Z,100.00
2022-08-29T02:41:08.543Z,94.44
2022-08-29T02:46:17.374Z,92.27
2022-08-29T02:51:22.970Z,90.81
2022-08-29T02:56:27.600Z,90.95
2022-08-29T03:01:31.316Z,90.92
2022-08-29T03:06:34.565Z,92.00
2022-08-29T03:11:38.597Z,91.11
2022-08-29T03:16:41.223Z,92.83
2022-08-29T03:21:45.236Z,90.25
2022-08-29T03:26:56.300Z,91.33
2022-08-29T03:31:59.711Z,92.89
2022-08-29T03:37:02.387Z,95.98
2022-08-29T03:42:07.475Z,94.60
2022-08-29T03:47:10.790Z,97.73
2022-08-29T03:52:13.731Z,93.23
2022-08-29T03:57:17.864Z,93.52
2022-08-29T04:02:20.563Z,95.61
2022-08-29T04:07:23.474Z,94.80
2022-08-29T04:12:27.458Z,94.31
2022-08-29T04:17:30.069Z,93.13
2022-08-29T04:22:32.808Z,93.23
2022-08-29T04:27:37.671Z,93.16
2022-08-29T04:32:40.379Z,97.78
2022-08-29T04:37:44.307Z,95.00
2022-08-29T04:42:51.336Z,97.54
2022-08-29T04:47:54.147Z,99.85
2022-08-29T04:52:57.263Z,97.34
2022-08-29T04:58:01.613Z,98.08
2022-08-29T05:03:07.744Z,100.00
2022-08-29T05:08:10.714Z,98.48
2022-08-29T05:13:14.776Z,99.92
2022-08-29T05:18:18.758Z,100.00
2022-08-29T05:23:21.493Z,100.00
2022-08-29T05:28:26.579Z,100.00
2022-08-29T05:33:29.563Z,99.53
2022-08-29T05:38:32.284Z,98.13
2022-08-29T05:43:37.052Z,98.64
2022-08-29T05:48:42.263Z,99.52
2022-08-29T05:53:45.312Z,98.08
2022-08-29T05:58:49.527Z,98.09
2022-08-29T06:03:52.412Z,98.87
2022-08-29T06:08:56.706Z,99.29
2022-08-29T06:14:01.908Z,100.00
2022-08-29T06:19:04.577Z,100.00
2022-08-29T06:24:07.781Z,100.00
2022-08-29T06:29:12.585Z,99.71
2022-08-29T06:34:15.318Z,100.00
2022-08-29T06:39:18.836Z,100.00
2022-08-29T06:44:23.779Z,98.79
2022-08-29T06:49:27.558Z,98.09
2022-08-29T06:54:31.027Z,96.25
2022-08-29T06:59:35.387Z,94.91
2022-08-29T07:04:38.532Z,95.21
2022-08-29T07:09:41.201Z,95.75
2022-08-29T07:14:45.694Z,94.78
2022-08-29T07:19:50.938Z,93.64
2022-08-29T07:24:53.944Z,92.44
2022-08-29T07:29:58.120Z,93.22
2022-08-29T07:35:00.803Z,91.69
2022-08-29T07:40:04.854Z,90.63
2022-08-29T07:45:11.402Z,89.71
2022-08-29T07:50:15.600Z,87.34
2022-08-29T07:55:18.396Z,88.14
2022-08-29T08:00:22.483Z,87.74
2022-08-29T08:05:25.215Z,86.37
2022-08-29T08:10:30.408Z,85.82
2022-08-29T08:15:34.504Z,83.15
2022-08-29T08:20:38.263Z,83.37
2022-08-29T08:25:41.320Z,84.49
2022-08-29T08:30:45.703Z,84.14
2022-08-29T08:35:55.101Z,83.87
2022-08-29T08:41:05.545Z,83.51
2022-08-29T08:46:09.677Z,84.13
2022-08-29T08:51:18.835Z,84.25
2022-08-29T08:56:29.621Z,84.20
2022-08-29T09:01:40.815Z,84.06
2022-08-29T09:06:58.858Z,84.26
2022-08-29T09:12:11.356Z,84.77
2022-08-29T09:17:21.175Z,83.71
2022-08-29T09:22:27.621Z,82.27
2022-08-29T09:27:37.542Z,82.09
2022-08-29T09:32:57.846Z,81.63
2022-08-29T09:38:04.236Z,80.39
2022-08-29T09:43:07.993Z,78.89
2022-08-29T09:48:17.343Z,82.24
2022-08-29T09:53:25.346Z,78.19
2022-08-29T09:58:36.336Z,80.49
2022-08-29T10:03:52.972Z,78.36
2022-08-29T10:08:59.181Z,79.01
2022-08-29T10:14:04.724Z,78.46
2022-08-29T10:19:13.736Z,78.63
2022-08-29T10:24:30.062Z,75.85
2022-08-29T10:29:51.495Z,74.36
2022-08-29T10:35:04.579Z,76.46
2022-08-29T10:40:17.608Z,76.33
2022-08-29T10:45:36.119Z,75.66
2022-08-29T10:50:50.510Z,76.57
2022-08-29T10:56:01.111Z,75.58
2022-08-29T11:01:13.400Z,74.22
2022-08-29T11:06:22.390Z,74.04
2022-08-29T11:11:29.917Z,75.28
2022-08-29T11:16:38.160Z,74.51
2022-08-29T11:21:47.923Z,74.03
2022-08-29T11:27:02.589Z,73.05
2022-08-29T11:32:09.904Z,72.22
2022-08-29T11:37:40.631Z,71.07
2022-08-29T11:42:50.924Z,69.66
2022-08-29T11:48:02.988Z,70.68
2022-08-29T11:53:16.715Z,68.99
2022-08-29T11:58:46.029Z,69.36
2022-08-29T12:03:51.591Z,68.13
2022-08-29T12:09:08.039Z,68.05
2022-08-29T12:14:34.278Z,68.05
2022-08-29T12:19:48.633Z,66.69
2022-08-29T12:24:57.304Z,64.73
2022-08-29T12:30:00.931Z,65.47
2022-08-29T12:35:49.703Z,64.89
2022-08-29T12:41:18.329Z,62.41
2022-08-29T12:46:27.185Z,68.05
2022-08-29T12:51:37.704Z,66.71
2022-08-29T12:56:52.247Z,72.41
2022-08-29T13:01:57.297Z,67.46
2022-08-29T13:07:02.072Z,65.15
2022-08-29T13:12:15.298Z,65.23
2022-08-29T13:17:20.920Z,71.63
2022-08-29T13:22:23.721Z,65.99
2022-08-29T13:27:27.853Z,67.59
2022-08-29T13:32:31.002Z,62.91
2022-08-29T13:37:36.241Z,63.93
2022-08-29T13:42:46.441Z,65.05
2022-08-29T13:47:57.338Z,62.66
2022-08-29T13:53:00.321Z,60.83
2022-08-29T13:58:05.453Z,61.12
2022-08-29T14:03:09.392Z,62.40
2022-08-29T14:08:13.779Z,56.50
2022-08-29T14:13:18.374Z,58.73
2022-08-29T14:18:21.748Z,59.79
2022-08-29T14:23:24.462Z,58.56
2022-08-29T14:28:29.062Z,56.86
2022-08-29T14:33:33.108Z,56.59
2022-08-29T14:38:37.344Z,60.49
2022-08-29T14:43:41.482Z,56.55
2022-08-29T14:48:44.136Z,55.16
2022-08-29T14:53:54.161Z,57.39
2022-08-29T14:58:59.702Z,55.26
2022-08-29T15:04:02.833Z,59.97
2022-08-29T15:09:06.596Z,60.98
2022-08-29T15:14:16.629Z,62.88
2022-08-29T15:24:43.754Z,65.32
2022-08-29T15:29:47.892Z,59.74
2022-08-29T15:34:51.962Z,65.84
2022-08-29T15:39:55.166Z,70.24
2022-08-29T15:45:02.547Z,62.60
2022-08-29T15:50:11.026Z,65.70
2022-08-29T15:55:14.697Z,64.10
2022-08-29T16:00:29.840Z,63.13
2022-08-29T16:05:36.483Z,67.50
2022-08-29T16:10:39.449Z,62.22
2022-08-29T16:15:44.271Z,67.51
2022-08-29T16:20:47.580Z,67.75
2022-08-29T16:25:52.857Z,71.29
2022-08-29T16:30:56.983Z,71.37
2022-08-29T16:36:00.666Z,66.35
2022-08-29T16:41:07.360Z,66.21
2022-08-29T16:46:14.768Z,65.18
2022-08-29T16:51:19.140Z,69.33
2022-08-29T16:56:22.167Z,72.66
2022-08-29T17:01:27.409Z,71.75
2022-08-29T17:06:30.617Z,67.97
2022-08-29T17:11:32.321Z,71.42
2022-08-29T17:16:36.735Z,74.43
2022-08-29T17:21:39.899Z,69.78
2022-08-29T17:26:45.217Z,72.42
2022-08-29T17:31:49.318Z,72.63
2022-08-29T17:36:54.704Z,74.96
2022-08-29T17:41:57.420Z,71.12
2022-08-29T17:47:02.597Z,74.82
2022-08-29T17:52:06.799Z,74.94
2022-08-29T17:57:09.459Z,75.49
2022-08-29T18:02:13.611Z,73.55
2022-08-29T18:07:17.184Z,70.58
2022-08-29T18:12:20.493Z,73.50
2022-08-29T18:17:25.694Z,73.89
2022-08-29T18:22:29.392Z,72.84
2022-08-29T18:27:33.746Z,72.66
2022-08-29T18:32:38.449Z,75.11
2022-08-29T18:37:41.419Z,75.51
2022-08-29T18:42:44.259Z,76.03
2022-08-29T18:47:52.536Z,75.64
2022-08-29T18:52:55.648Z,72.34
2022-08-29T18:57:58.517Z,73.99
2022-08-29T19:03:03.701Z,74.05
2022-08-29T19:08:07.100Z,72.71
2022-08-29T19:13:09.942Z,73.18
2022-08-29T19:18:15.739Z,76.86
2022-08-29T19:23:19.704Z,77.93
2022-08-29T19:28:22.689Z,77.33
2022-08-29T19:33:27.157Z,78.31
2022-08-29T19:38:30.233Z,78.04
2022-08-29T19:43:34.756Z,78.27
2022-08-29T19:48:41.850Z,77.13
2022-08-29T19:53:45.333Z,79.11
2022-08-29T19:58:49.471Z,80.22
2022-08-29T20:03:54.173Z,78.87
2022-08-29T20:08:58.685Z,78.52
2022-08-29T20:14:02.062Z,78.73
2022-08-29T20:19:06.608Z,79.02
2022-08-29T20:24:10.274Z,79.56
2022-08-29T20:29:20.568Z,79.02
2022-08-29T20:34:28.241Z,79.93
2022-08-29T20:39:31.394Z,80.21
2022-08-29T20:44:37.736Z,80.24
2022-08-29T20:49:43.888Z,80.93
2022-08-29T20:54:47.145Z,80.87
2022-08-29T20:59:49.785Z,81.63
2022-08-29T21:05:11.271Z,81.74
2022-08-29T21:10:14.312Z,82.39
2022-08-29T21:15:17.211Z,82.58
2022-08-29T21:20:21.216Z,82.99
2022-08-29T21:25:23.849Z,82.70
2022-08-29T21:30:26.764Z,83.26
2022-08-29T21:35:30.967Z,83.74
2022-08-29T21:40:33.926Z,84.68
2022-08-29T21:45:36.640Z,86.06
2022-08-29T21:50:40.850Z,86.85
2022-08-29T21:55:43.590Z,86.40
2022-08-29T22:00:46.308Z,88.30
2022-08-29T22:05:52.663Z,91.05
2022-08-29T22:10:58.393Z,92.08
2022-08-29T22:16:18.821Z,91.77
2022-08-29T22:21:33.951Z,92.43
2022-08-29T22:26:38.556Z,91.28
2022-08-29T22:31:42.423Z,92.18
2022-08-29T22:36:46.877Z,93.01
2022-08-29T22:41:49.511Z,92.95
2022-08-29T22:46:52.810Z,93.67
2022-08-29T22:51:56.845Z,93.10
2022-08-29T22:56:59.490Z,94.04
2022-08-29T23:02:02.330Z,94.24
2022-08-29T23:07:07.647Z,95.31
2022-08-29T23:12:12.586Z,96.82
2022-08-29T23:17:16.908Z,98.12
2022-08-29T23:22:20.887Z,97.59
2022-08-29T23:27:23.571Z,96.22
2022-08-29T23:32:28.921Z,96.74
2022-08-29T23:37:35.614Z,96.45
2022-08-29T23:42:38.286Z,97.15
2022-08-29T23:47:41.468Z,96.75
2022-08-29T23:52:46.678Z,96.93
2022-08-29T23:57:49.699Z,96.33
